Time;durP1;ratioP1;P1;durP2;ratioP2;P2;SDS_P1;SDS_P2;PMS_P1;PMS_P2;Temp;Humidity;BMP_temperature;BMP_pressure;BME280_temperature;BME280_humidity;BME280_pressure;Samples;Min_cycle;Max_cycle;Signal;HPM_P1;HPM_P2
2020/12/19 00:01:43;;;;;;;10.93;6.05;;;;;;;;;;4927786;29;20130;-78
2020/12/19 00:04:18;;;;;;;14.00;5.88;;;;;;;;;;4934780;29;20051;-76
2020/12/19 00:07:14;;;;;;;12.75;5.97;;;;;;;;;;4934369;29;20071;-78
2020/12/19 00:09:54;;;;;;;11.15;6.00;;;;;;;;;;4985710;28;20052;-78
2020/12/19 00:12:45;;;;;;;10.70;5.65;;;;;;;;;;4985157;28;20077;-78
2020/12/19 00:15:18;;;;;;;10.25;5.70;;;;;;;;;;4998308;28;20045;-79
2020/12/19 00:18:01;;;;;;;14.05;6.35;;;;;;;;;;4996534;28;20496;-78
2020/12/19 00:20:57;;;;;;;;;;;;;;;;;;;;;
2020/12/19 00:24:09;;;;;;;11.50;5.63;;;;;;;;;;4960361;28;20126;-78
2020/12/19 00:27:23;;;;;;;12.47;5.90;;;;;;;;;;4928596;29;20123;-78
2020/12/19 00:30:11;;;;;;;14.65;5.78;;;;;;;;;;4934604;29;20044;-79
2020/12/19 00:33:04;;;;;;;13.27;6.30;;;;;;;;;;4922392;29;20035;-79
2020/12/19 00:36:48;;;;;;;;;;;;;;;;;;;;;
2020/12/19 00:39:47;;;;;;;10.23;5.75;;;;;;;;;;4926889;29;20048;-77
2020/12/19 00:42:53;;;;;;;13.30;5.95;;;;;;;;;;4923783;29;20048;-78
2020/12/19 00:45:36;;;;;;;12.43;5.82;;;;;;;;;;4920076;29;20474;-78
2020/12/19 00:48:44;;;;;;;14.20;6.40;;;;;;;;;;4905339;29;20055;-80
2020/12/19 00:51:36;;;;;;;10.93;5.82;;;;;;;;;;4968236;28;20046;-78
2020/12/19 00:55:46;;;;;;;13.57;5.50;;;;;;;;;;4893085;29;20048;-78
2020/12/19 00:58:04;;;;;;;10.63;5.80;;;;;;;;;;4909415;29;20040;-77
2020/12/19 01:00:59;;;;;;;;;;;;;;;;;;4876485;29;20048;-79
2020/12/19 01:04:00;;;;;;;10.63;5.30;;;;;;;;;;4848026;29;19957;-78
2020/12/19 01:06:34;;;;;;;12.60;6.40;;;;;;;;;;4843447;29;20128;-78
2020/12/19 01:09:28;;;;;;;11.00;5.85;;;;;;;;;;4857371;29;20060;-78
2020/12/19 01:12:05;;;;;;;10.98;5.68;;;;;;;;;;4859307;29;20136;-79
2020/12/19 01:15:13;;;;;;;10.80;5.95;;;;;;;;;;4847121;29;20655;-80
2020/12/19 01:18:27;;;;;;;14.73;6.53;;;;;;;;;;4907973;29;20578;-81
2020/12/19 01:21:33;;;;;;;13.45;6.00;;;;;;;;;;4949149;29;20118;-79
2020/12/19 01:24:19;;;;;;;13.10;5.80;;;;;;;;;;4946868;29;20059;-80
2020/12/19 01:27:06;;;;;;;13.05;6.18;;;;;;;;;;4935101;29;20637;-78
2020/12/19 01:30:21;;;;;;;9.70;5.53;;;;;;;;;;4922185;29;20040;-80
2020/12/19 01:33:15;;;;;;;11.50;6.30;;;;;;;;;;4940323;29;20050;-78
2020/12/19 01:36:25;;;;;;;14.15;6.43;;;;;;;;;;4916898;29;20486;-79
2020/12/19 01:38:59;;;;;;;11.80;6.10;;;;;;;;;;4933220;29;20055;-78
2020/12/19 01:41:56;;;;;;;9.13;5.10;;;;;;;;;;4965492;28;20050;-78
2020/12/19 01:44:40;;;;;;;10.95;5.97;;;;;;;;;;5012989;28;20086;-78
2020/12/19 01:47:42;;;;;;;10.40;5.78;;;;;;;;;;5005727;28;20060;-79
2020/12/19 01:50:09;;;;;;;9.25;5.43;;;;;;;;;;5011258;28;20104;-78
2020/12/19 01:52:36;;;;;;;11.85;5.43;;;;;;;;;;4994609;28;20046;-78
2020/12/19 01:55:14;;;;;;;12.45;5.93;;;;;;;;;;4996999;28;20042;-78
2020/12/19 01:57:52;;;;;;;8.90;5.40;;;;;;;;;;5013956;28;20116;-79
2020/12/19 02:00:43;;;;;;;10.70;5.38;;;;;;;;;;4975426;28;20046;-78
2020/12/19 02:03:37;;;;;;;10.82;5.75;;;;;;;;;;4994640;28;20042;-79
2020/12/19 02:06:32;;;;;;;12.38;5.82;;;;;;;;;;4983157;28;20046;-79
2020/12/19 02:09:08;;;;;;;9.43;5.13;;;;;;;;;;4995715;28;20052;-80
2020/12/19 02:11:43;;;;;;;;;;;;;;;;;;5012272;28;20573;-78
2020/12/19 02:14:23;;;;;;;10.55;5.20;;;;;;;;;;5012392;28;19925;-79
2020/12/19 02:17:03;;;;;;;9.75;5.03;;;;;;;;;;4980436;28;20129;-78
2020/12/19 02:19:30;;;;;;;8.57;3.88;;;;;;;;;;5012454;28;20060;-78
2020/12/19 02:22:14;;;;;;;9.18;4.93;;;;;;;;;;5012431;28;20654;-77
2020/12/19 02:24:55;;;;;;;7.78;4.50;;;;;;;;;;4991059;28;20416;-79
2020/12/19 02:27:25;;;;;;;8.13;4.80;;;;;;;;;;4994685;28;20092;-78
2020/12/19 02:30:11;;;;;;;10.05;4.93;;;;;;;;;;5012605;28;20073;-79
2020/12/19 02:33:06;;;;;;;8.18;4.55;;;;;;;;;;4983604;28;20469;-79
2020/12/19 02:36:03;;;;;;;7.95;4.38;;;;;;;;;;4986715;28;20048;-78
2020/12/19 02:38:32;;;;;;;7.53;4.22;;;;;;;;;;4994854;28;20042;-79
2020/12/19 02:41:38;;;;;;;11.13;5.10;;;;;;;;;;4998784;28;20177;-78
2020/12/19 02:44:37;;;;;;;8.07;4.32;;;;;;;;;;4955086;29;20146;-78
2020/12/19 02:50:21;;;;;;;7.68;4.05;;;;;;;;;;4943317;29;20051;-78
2020/12/19 02:53:05;;;;;;;8.52;4.10;;;;;;;;;;4955739;29;20139;-78
2020/12/19 02:55:46;;;;;;;7.78;3.88;;;;;;;;;;4940041;29;20047;-79
2020/12/19 02:58:42;;;;;;;10.73;4.43;;;;;;;;;;4941593;29;20094;-78
2020/12/19 03:01:45;;;;;;;7.90;3.75;;;;;;;;;;4952443;28;20091;-79
2020/12/19 03:05:30;;;;;;;;;;;;;;;;;;;;;
2020/12/19 03:08:30;;;;;;;11.02;4.53;;;;;;;;;;4982093;28;20096;-80
2020/12/19 03:11:57;;;;;;;9.23;4.10;;;;;;;;;;4990248;28;20157;-79
2020/12/19 03:14:34;;;;;;;11.00;4.28;;;;;;;;;;4999260;28;20610;-79
2020/12/19 03:17:17;;;;;;;7.70;4.30;;;;;;;;;;5015653;28;20048;-79
2020/12/19 03:19:54;;;;;;;10.02;4.60;;;;;;;;;;4981768;28;20073;-80
2020/12/19 03:22:45;;;;;;;10.15;4.45;;;;;;;;;;5016471;28;20069;-80
2020/12/19 03:25:26;;;;;;;;;;;;;;;;;;;;;
2020/12/19 03:28:10;;;;;;;9.18;4.57;;;;;;;;;;5015505;28;20100;-80
2020/12/19 03:30:40;;;;;;;11.80;4.47;;;;;;;;;;4983408;28;20046;-81
2020/12/19 03:33:32;;;;;;;8.73;4.20;;;;;;;;;;5001604;28;20121;-76
2020/12/19 03:36:02;;;;;;;8.48;4.10;;;;;;;;;;5016165;28;20451;-79
2020/12/19 03:38:40;;;;;;;7.85;4.70;;;;;;;;;;4998341;28;20045;-80
2020/12/19 03:41:20;;;;;;;8.88;4.25;;;;;;;;;;4998586;28;20042;-78
2020/12/19 03:44:12;;;;;;;12.27;4.78;;;;;;;;;;5016982;28;20037;-80
2020/12/19 03:46:50;;;;;;;;;;;;;;;;;;5018173;28;20046;-79
2020/12/19 03:49:52;;;;;;;9.18;4.85;;;;;;;;;;4993767;28;19922;-82
2020/12/19 03:52:34;;;;;;;8.93;4.70;;;;;;;;;;5000888;28;20085;-78
2020/12/19 03:55:29;;;;;;;8.82;4.30;;;;;;;;;;4974431;28;20093;-79
2020/12/19 03:58:08;;;;;;;8.70;4.45;;;;;;;;;;4982700;28;20149;-78
2020/12/19 04:00:42;;;;;;;9.00;4.78;;;;;;;;;;5016268;28;20408;-79
2020/12/19 04:03:38;;;;;;;9.15;4.80;;;;;;;;;;4984693;28;20073;-80
2020/12/19 04:06:13;;;;;;;10.05;4.78;;;;;;;;;;4994112;28;20077;-79
2020/12/19 04:08:53;;;;;;;8.93;4.93;;;;;;;;;;4997502;28;20046;-79
2020/12/19 04:12:02;;;;;;;8.85;4.43;;;;;;;;;;5000689;28;20053;-79
2020/12/19 04:14:44;;;;;;;9.38;4.82;;;;;;;;;;5016792;28;20061;-80
2020/12/19 04:17:18;;;;;;;9.05;4.78;;;;;;;;;;4981134;28;20046;-80
2020/12/19 04:19:51;;;;;;;11.68;5.10;;;;;;;;;;5015436;28;20070;-80
2020/12/19 04:22:38;;;;;;;11.50;4.82;;;;;;;;;;4996375;28;20062;-79
2020/12/19 04:25:09;;;;;;;8.32;4.50;;;;;;;;;;5000500;28;20056;-81
2020/12/19 04:27:49;;;;;;;9.68;4.95;;;;;;;;;;4996036;28;20069;-80
2020/12/19 04:30:18;;;;;;;8.27;4.40;;;;;;;;;;5000149;28;20042;-80
2020/12/19 04:32:55;;;;;;;9.90;4.53;;;;;;;;;;4998420;28;20042;-79
2020/12/19 04:35:52;;;;;;;10.40;4.80;;;;;;;;;;4978524;28;20371;-80
2020/12/19 04:38:33;;;;;;;10.05;4.80;;;;;;;;;;4999902;28;20046;-80
2020/12/19 04:41:12;;;;;;;8.38;4.28;;;;;;;;;;4997927;28;20058;-79
2020/12/19 04:44:27;;;;;;;8.75;4.47;;;;;;;;;;5003133;28;20101;-80
2020/12/19 04:46:59;;;;;;;8.95;4.18;;;;;;;;;;5014761;28;20065;-78
2020/12/19 04:49:29;;;;;;;7.55;4.22;;;;;;;;;;5012787;28;20057;-79
2020/12/19 04:52:16;;;;;;;9.70;4.60;;;;;;;;;;5015082;28;20049;-79
2020/12/19 04:54:55;;;;;;;8.93;4.32;;;;;;;;;;5013540;28;20293;-79
2020/12/19 04:57:30;;;;;;;7.82;4.05;;;;;;;;;;4999326;28;20045;-80
2020/12/19 05:00:29;;;;;;;9.10;4.03;;;;;;;;;;4998920;28;20104;-80
2020/12/19 05:03:02;;;;;;;10.15;4.20;;;;;;;;;;5015481;28;20041;-80
2020/12/19 05:06:07;;;;;;;9.48;4.25;;;;;;;;;;4910819;29;20056;-79
2020/12/19 05:08:56;;;;;;;9.57;4.15;;;;;;;;;;4902569;29;20142;-81
2020/12/19 05:11:50;;;;;;;8.20;3.92;;;;;;;;;;4904664;29;20200;-80
2020/12/19 05:14:34;;;;;;;8.20;3.88;;;;;;;;;;4916016;29;20056;-78
2020/12/19 05:17:24;;;;;;;8.82;4.28;;;;;;;;;;4898766;29;20051;-80
2020/12/19 05:20:05;;;;;;;9.00;3.60;;;;;;;;;;4911069;29;20440;-78
2020/12/19 05:22:42;;;;;;;7.60;3.95;;;;;;;;;;4899344;29;20055;-79
2020/12/19 05:25:41;;;;;;;11.25;4.68;;;;;;;;;;4904007;29;20048;-79
2020/12/19 05:28:38;;;;;;;7.65;3.70;;;;;;;;;;4936640;28;20053;-81
2020/12/19 05:31:22;;;;;;;8.10;3.72;;;;;;;;;;5001055;28;20046;-77
2020/12/19 05:34:33;;;;;;;8.18;3.75;;;;;;;;;;4999832;28;20070;-81
2020/12/19 05:37:21;;;;;;;7.28;3.42;;;;;;;;;;5002167;28;20046;-83
2020/12/19 05:39:56;;;;;;;8.82;3.40;;;;;;;;;;4982169;28;20068;-76
2020/12/19 05:42:28;;;;;;;6.93;2.85;;;;;;;;;;4963902;28;20042;-78
2020/12/19 05:45:07;;;;;;;;;;;;;;;;;;;;;
2020/12/19 05:47:41;;;;;;;6.45;3.28;;;;;;;;;;4981996;28;20516;-80
2020/12/19 05:50:08;;;;;;;6.38;3.10;;;;;;;;;;4959497;28;20053;-79
2020/12/19 05:52:53;;;;;;;6.10;3.10;;;;;;;;;;4982192;28;20047;-79
2020/12/19 05:55:28;;;;;;;9.45;4.10;;;;;;;;;;4995886;28;20050;-76
2020/12/19 05:58:27;;;;;;;8.10;3.35;;;;;;;;;;4978527;28;20049;-78
2020/12/19 06:01:14;;;;;;;6.50;3.03;;;;;;;;;;4977351;28;20042;-79
2020/12/19 06:03:58;;;;;;;;;;;;;;;;;;;;;
2020/12/19 06:06:50;;;;;;;8.00;3.50;;;;;;;;;;4983610;28;20057;-79
2020/12/19 06:09:59;;;;;;;6.85;2.95;;;;;;;;;;4947688;28;20510;-80
2020/12/19 06:12:52;;;;;;;9.57;3.42;;;;;;;;;;4962563;28;20042;-80
2020/12/19 06:15:46;;;;;;;7.68;3.25;;;;;;;;;;4993359;28;20565;-79
2020/12/19 06:18:42;;;;;;;8.60;3.50;;;;;;;;;;4979449;28;20051;-77
2020/12/19 06:21:12;;;;;;;7.07;2.85;;;;;;;;;;4996500;28;20098;-79
2020/12/19 06:24:00;;;;;;;6.78;3.40;;;;;;;;;;5031064;23;20038;-80
2020/12/19 06:26:44;;;;;;;7.43;2.95;;;;;;;;;;5024609;28;20046;-81
2020/12/19 06:29:41;;;;;;;6.20;3.17;;;;;;;;;;5021757;28;20041;-79
2020/12/19 06:32:33;;;;;;;7.03;3.28;;;;;;;;;;5025199;28;20046;-80
2020/12/19 06:35:27;;;;;;;7.15;3.38;;;;;;;;;;5005460;28;20041;-80
2020/12/19 06:37:56;;;;;;;9.05;3.10;;;;;;;;;;5005396;28;20048;-81
2020/12/19 06:40:39;;;;;;;6.55;3.00;;;;;;;;;;5006253;28;20049;-80
2020/12/19 06:43:17;;;;;;;5.18;3.22;;;;;;;;;;5009621;28;20042;-80
2020/12/19 06:45:57;;;;;;;8.50;3.80;;;;;;;;;;5009980;28;20093;-80
2020/12/19 06:48:45;;;;;;;6.20;3.05;;;;;;;;;;4994647;28;20123;-83
2020/12/19 06:51:25;;;;;;;6.57;3.10;;;;;;;;;;5008254;28;20042;-81
2020/12/19 06:53:59;;;;;;;7.20;3.17;;;;;;;;;;5010149;28;20038;-80
2020/12/19 06:56:35;;;;;;;5.95;2.92;;;;;;;;;;5030978;28;20110;-79
2020/12/19 06:59:21;;;;;;;5.47;3.15;;;;;;;;;;4998807;28;20085;-79
2020/12/19 07:01:52;;;;;;;7.97;3.35;;;;;;;;;;5031922;28;20042;-79
2020/12/19 07:04:32;;;;;;;6.95;2.95;;;;;;;;;;5015366;28;20100;-78
2020/12/19 07:07:26;;;;;;;5.90;3.05;;;;;;;;;;4998994;28;20260;-78
2020/12/19 07:10:02;;;;;;;6.13;2.90;;;;;;;;;;4997594;28;20049;-79
2020/12/19 07:12:35;;;;;;;7.13;2.83;;;;;;;;;;4995078;28;20096;-81
2020/12/19 07:15:13;;;;;;;6.55;3.10;;;;;;;;;;5009639;28;20053;-80
2020/12/19 07:17:46;;;;;;;5.68;3.13;;;;;;;;;;5022546;28;20049;-80
2020/12/19 07:20:36;;;;;;;6.07;3.30;;;;;;;;;;5006970;28;20652;-80
2020/12/19 07:23:11;;;;;;;7.07;3.47;;;;;;;;;;5008016;28;20567;-80
2020/12/19 07:25:39;;;;;;;9.60;3.63;;;;;;;;;;5008266;28;20094;-80
2020/12/19 07:28:22;;;;;;;5.70;2.95;;;;;;;;;;4991467;28;20045;-81
2020/12/19 07:31:05;;;;;;;8.23;3.63;;;;;;;;;;5025446;28;20053;-81
2020/12/19 07:33:47;;;;;;;6.97;3.45;;;;;;;;;;4993355;28;20564;-81
2020/12/19 07:36:30;;;;;;;9.25;3.03;;;;;;;;;;5025668;28;20052;-82
2020/12/19 07:39:07;;;;;;;8.35;3.95;;;;;;;;;;5010110;28;20042;-81
2020/12/19 07:41:44;;;;;;;9.88;3.72;;;;;;;;;;5009155;28;20072;-81
2020/12/19 07:44:19;;;;;;;7.60;3.97;;;;;;;;;;5007516;28;20049;-80
2020/12/19 07:47:04;;;;;;;8.50;3.30;;;;;;;;;;5023225;28;20050;-81
2020/12/19 07:49:51;;;;;;;8.25;3.67;;;;;;;;;;5006322;28;20050;-82
2020/12/19 07:52:41;;;;;;;8.05;3.47;;;;;;;;;;5023941;28;20049;-81
2020/12/19 07:55:22;;;;;;;6.53;3.50;;;;;;;;;;4993364;28;20072;-81
2020/12/19 07:57:58;;;;;;;7.40;3.20;;;;;;;;;;5007126;28;20044;-81
2020/12/19 08:00:34;;;;;;;11.52;3.70;;;;;;;;;;4998138;28;20042;-82
2020/12/19 08:03:09;;;;;;;7.93;3.22;;;;;;;;;;5023570;28;20042;-81
2020/12/19 08:05:54;;;;;;;6.57;3.42;;;;;;;;;;5019029;28;20069;-78
2020/12/19 08:08:21;;;;;;;6.38;3.42;;;;;;;;;;4995171;28;20049;-80
2020/12/19 08:11:05;;;;;;;7.45;3.67;;;;;;;;;;4995377;28;20112;-81
2020/12/19 08:13:43;;;;;;;8.03;3.47;;;;;;;;;;5021218;28;20052;-81
2020/12/19 08:16:12;;;;;;;6.38;3.22;;;;;;;;;;5004168;28;20501;-81
2020/12/19 08:18:59;;;;;;;9.40;3.47;;;;;;;;;;4992099;28;20122;-80
2020/12/19 08:21:50;;;;;;;6.55;3.25;;;;;;;;;;5008957;28;20461;-78
2020/12/19 08:24:16;;;;;;;7.78;3.60;;;;;;;;;;5017421;28;20070;-80
2020/12/19 08:26:43;;;;;;;9.25;4.20;;;;;;;;;;5012984;28;20113;-80
2020/12/19 08:29:09;;;;;;;6.40;2.92;;;;;;;;;;5001965;28;20041;-80
2020/12/19 08:31:36;;;;;;;5.25;3.00;;;;;;;;;;4997624;28;20089;-81
2020/12/19 08:34:09;;;;;;;6.90;2.97;;;;;;;;;;5009622;28;20049;-81
2020/12/19 08:36:35;;;;;;;6.18;3.20;;;;;;;;;;4991776;28;20053;-81
2020/12/19 08:39:15;;;;;;;7.80;3.30;;;;;;;;;;4997492;28;20037;-79
2020/12/19 08:41:43;;;;;;;6.25;3.08;;;;;;;;;;4990131;28;20466;-81
2020/12/19 08:44:23;;;;;;;5.88;2.95;;;;;;;;;;5006134;28;20370;-80
2020/12/19 08:47:03;;;;;;;7.70;3.80;;;;;;;;;;4992831;28;20449;-80
2020/12/19 08:49:30;;;;;;;8.45;3.67;;;;;;;;;;5003769;28;20469;-80
2020/12/19 08:51:57;;;;;;;6.85;3.25;;;;;;;;;;4985599;28;20206;-80
2020/12/19 08:54:26;;;;;;;6.03;2.80;;;;;;;;;;5033709;28;20042;-80
2020/12/19 08:56:53;;;;;;;7.38;3.47;;;;;;;;;;5005618;28;20084;-80
2020/12/19 08:59:32;;;;;;;6.15;3.60;;;;;;;;;;5020756;28;20061;-81
2020/12/19 09:02:12;;;;;;;7.75;3.10;;;;;;;;;;4990725;28;20050;-82
2020/12/19 09:04:47;;;;;;;4.88;2.53;;;;;;;;;;5022239;28;20073;-80
2020/12/19 09:07:26;;;;;;;5.53;3.08;;;;;;;;;;5021493;28;20053;-80
2020/12/19 09:10:21;;;;;;;6.88;3.17;;;;;;;;;;5007582;28;20050;-82
2020/12/19 09:13:10;;;;;;;5.72;2.90;;;;;;;;;;5020797;28;20183;-81
2020/12/19 09:15:40;;;;;;;5.18;2.50;;;;;;;;;;5004465;28;20060;-80
2020/12/19 09:18:18;;;;;;;4.72;2.20;;;;;;;;;;5021642;28;20281;-79
2020/12/19 09:20:58;;;;;;;4.15;2.40;;;;;;;;;;5005065;28;20050;-80
2020/12/19 09:23:28;;;;;;;4.88;2.30;;;;;;;;;;5020036;28;20065;-80
2020/12/19 09:26:00;;;;;;;6.18;2.45;;;;;;;;;;5035690;28;20122;-80
2020/12/19 09:28:32;;;;;;;5.15;2.35;;;;;;;;;;5002505;28;20041;-80
2020/12/19 09:31:18;;;;;;;5.07;2.17;;;;;;;;;;5014624;28;20146;-80
2020/12/19 09:33:52;;;;;;;3.80;2.25;;;;;;;;;;5017704;28;20052;-80
2020/12/19 09:36:50;;;;;;;4.45;2.70;;;;;;;;;;5019538;28;20503;-80
2020/12/19 09:39:25;;;;;;;3.20;1.85;;;;;;;;;;5024768;28;20038;-77
2020/12/19 09:42:39;;;;;;;3.92;2.50;;;;;;;;;;5023795;28;20065;-80
2020/12/19 09:45:31;;;;;;;4.53;2.60;;;;;;;;;;5010580;28;20080;-79
2020/12/19 09:51:09;;;;;;;6.90;2.90;;;;;;;;;;5022646;28;20046;-81
2020/12/19 09:53:44;;;;;;;4.47;2.35;;;;;;;;;;5015549;28;20148;-79
2020/12/19 09:56:14;;;;;;;5.35;2.47;;;;;;;;;;5015965;28;20060;-80
2020/12/19 09:58:55;;;;;;;6.93;2.42;;;;;;;;;;5001996;28;20160;-81
2020/12/19 10:01:26;;;;;;;4.32;2.38;;;;;;;;;;5016881;28;20074;-79
2020/12/19 10:03:57;;;;;;;5.00;2.30;;;;;;;;;;5017154;28;20080;-80
2020/12/19 10:06:27;;;;;;;4.82;2.47;;;;;;;;;;5000652;28;20099;-80
2020/12/19 10:08:58;;;;;;;4.80;2.50;;;;;;;;;;5018099;28;20050;-81
2020/12/19 10:11:25;;;;;;;4.68;2.53;;;;;;;;;;5033437;28;20064;-80
2020/12/19 10:14:04;;;;;;;3.38;2.30;;;;;;;;;;5001662;28;20141;-80
2020/12/19 10:16:39;;;;;;;5.68;2.40;;;;;;;;;;5018671;28;20046;-81
2020/12/19 10:19:12;;;;;;;5.13;2.70;;;;;;;;;;5020493;28;20088;-80
2020/12/19 10:21:49;;;;;;;5.57;2.80;;;;;;;;;;5017747;28;20065;-80
2020/12/19 10:24:18;;;;;;;4.15;2.40;;;;;;;;;;4999817;28;20467;-80
2020/12/19 10:26:51;;;;;;;5.68;2.65;;;;;;;;;;5001591;28;20053;-81
2020/12/19 10:29:25;;;;;;;7.10;2.90;;;;;;;;;;5011757;28;20096;-80
2020/12/19 10:31:57;;;;;;;9.35;3.03;;;;;;;;;;5000633;28;20073;-80
2020/12/19 10:34:28;;;;;;;7.65;3.35;;;;;;;;;;4984246;28;20062;-81
2020/12/19 10:37:02;;;;;;;5.73;2.50;;;;;;;;;;4985062;28;20046;-78
2020/12/19 10:39:35;;;;;;;6.13;3.10;;;;;;;;;;5001664;28;20042;-81
2020/12/19 10:42:07;;;;;;;5.85;3.35;;;;;;;;;;4991696;28;20073;-80
2020/12/19 10:44:41;;;;;;;6.50;3.47;;;;;;;;;;5000054;28;20089;-79
2020/12/19 10:47:08;;;;;;;8.13;3.80;;;;;;;;;;5024925;28;20026;-80
2020/12/19 10:49:36;;;;;;;7.05;3.28;;;;;;;;;;5028501;28;20045;-80
2020/12/19 10:52:08;;;;;;;6.15;3.65;;;;;;;;;;4997747;28;20449;-80
2020/12/19 10:54:39;;;;;;;10.23;3.72;;;;;;;;;;5043351;28;20042;-81
2020/12/19 10:57:09;;;;;;;5.82;3.13;;;;;;;;;;5010666;28;20117;-79
2020/12/19 10:59:41;;;;;;;7.78;3.33;;;;;;;;;;4996583;28;20053;-80
2020/12/19 11:02:08;;;;;;;8.10;3.92;;;;;;;;;;5029899;28;20456;-80
2020/12/19 11:04:34;;;;;;;8.13;3.35;;;;;;;;;;5031221;28;20038;-81
2020/12/19 11:07:06;;;;;;;6.93;3.33;;;;;;;;;;5033930;28;20045;-80
2020/12/19 11:09:40;;;;;;;7.22;3.22;;;;;;;;;;5031875;28;20030;-80
2020/12/19 11:12:07;;;;;;;7.50;3.35;;;;;;;;;;5031524;28;20049;-79
2020/12/19 11:14:34;;;;;;;6.38;3.05;;;;;;;;;;5009394;28;20049;-80
2020/12/19 11:17:00;;;;;;;6.18;2.88;;;;;;;;;;5003751;28;20046;-80
2020/12/19 11:19:36;;;;;;;5.53;3.07;;;;;;;;;;5019874;28;20049;-80
2020/12/19 11:22:02;;;;;;;7.05;3.45;;;;;;;;;;5019959;28;20364;-80
2020/12/19 11:24:29;;;;;;;5.82;3.35;;;;;;;;;;4998450;28;20072;-79
2020/12/19 11:26:59;;;;;;;9.05;3.95;;;;;;;;;;5014140;28;20046;-78
2020/12/19 11:29:26;;;;;;;6.50;3.30;;;;;;;;;;4986569;28;20421;-81
2020/12/19 11:31:52;;;;;;;8.35;3.13;;;;;;;;;;5025467;28;20037;-80
2020/12/19 11:34:26;;;;;;;7.22;3.80;;;;;;;;;;5003901;28;20042;-80
2020/12/19 11:36:56;;;;;;;6.72;3.63;;;;;;;;;;4986793;28;20065;-79
2020/12/19 11:39:25;;;;;;;7.88;4.05;;;;;;;;;;4987788;28;20042;-80
2020/12/19 11:41:52;;;;;;;8.00;3.17;;;;;;;;;;5020766;28;20053;-81
2020/12/19 11:44:22;;;;;;;4.68;2.70;;;;;;;;;;4986153;28;20046;-79
2020/12/19 11:46:50;;;;;;;4.35;2.80;;;;;;;;;;5004648;28;20038;-80
2020/12/19 11:49:19;;;;;;;4.32;2.70;;;;;;;;;;5004357;28;20056;-79
2020/12/19 11:51:46;;;;;;;5.30;3.08;;;;;;;;;;5012923;28;20105;-80
2020/12/19 11:54:22;;;;;;;6.32;3.28;;;;;;;;;;5002322;28;20103;-80
2020/12/19 11:56:53;;;;;;;5.38;2.85;;;;;;;;;;5002674;28;20042;-79
2020/12/19 11:59:22;;;;;;;4.95;3.08;;;;;;;;;;4985830;28;20046;-82
2020/12/19 12:01:55;;;;;;;6.60;2.80;;;;;;;;;;5002276;28;20046;-77
2020/12/19 12:04:30;;;;;;;6.82;2.95;;;;;;;;;;4985480;28;20505;-78
2020/12/19 12:06:57;;;;;;;4.80;2.90;;;;;;;;;;5017051;28;20042;-82
2020/12/19 12:09:26;;;;;;;3.40;2.58;;;;;;;;;;4985163;28;20521;-78
2020/12/19 12:11:53;;;;;;;5.60;3.45;;;;;;;;;;5001817;28;20046;-79
2020/12/19 12:14:20;;;;;;;4.30;2.78;;;;;;;;;;5004338;28;20129;-80
2020/12/19 12:16:53;;;;;;;5.53;3.08;;;;;;;;;;5001525;28;20076;-79
2020/12/19 12:19:20;;;;;;;7.13;3.20;;;;;;;;;;5001087;28;20034;-79
2020/12/19 12:21:51;;;;;;;5.07;3.03;;;;;;;;;;5002382;28;20129;-81
2020/12/19 12:24:18;;;;;;;5.55;3.17;;;;;;;;;;5021996;23;20159;-80
2020/12/19 12:26:44;;;;;;;5.60;3.40;;;;;;;;;;5023723;28;20634;-78
2020/12/19 12:29:10;;;;;;;7.13;3.38;;;;;;;;;;5011215;28;20043;-80
2020/12/19 12:31:36;;;;;;;5.75;3.13;;;;;;;;;;5013256;28;20057;-78
2020/12/19 12:34:03;;;;;;;8.30;3.10;;;;;;;;;;4996278;28;20030;-80
2020/12/19 12:36:31;;;;;;;11.57;5.07;;;;;;;;;;5009922;28;20042;-79
2020/12/19 12:38:57;;;;;;;6.28;3.20;;;;;;;;;;5006054;28;20407;-81
2020/12/19 12:41:24;;;;;;;5.65;3.10;;;;;;;;;;4985534;28;20046;-79
2020/12/19 12:43:50;;;;;;;6.35;3.67;;;;;;;;;;4995885;28;20047;-81
2020/12/19 12:46:18;;;;;;;5.68;3.10;;;;;;;;;;5007547;28;20053;-81
2020/12/19 12:48:45;;;;;;;6.95;3.35;;;;;;;;;;5006137;28;20035;-81
2020/12/19 12:51:11;;;;;;;8.52;3.60;;;;;;;;;;5013170;28;20039;-80
2020/12/19 12:53:38;;;;;;;8.02;3.58;;;;;;;;;;5012531;28;20062;-82
2020/12/19 12:56:04;;;;;;;6.22;3.50;;;;;;;;;;5008924;28;20394;-80
2020/12/19 12:58:31;;;;;;;8.73;4.43;;;;;;;;;;5006815;28;20038;-83
2020/12/19 13:00:58;;;;;;;7.28;3.85;;;;;;;;;;5006285;28;20062;-82
2020/12/19 13:03:24;;;;;;;9.07;4.22;;;;;;;;;;5005640;28;20049;-81
2020/12/19 13:05:51;;;;;;;9.80;3.92;;;;;;;;;;5005403;28;20203;-80
2020/12/19 13:08:18;;;;;;;7.50;3.67;;;;;;;;;;5005055;28;20039;-80
2020/12/19 13:10:44;;;;;;;8.75;4.28;;;;;;;;;;5005007;28;20042;-80
2020/12/19 13:13:11;;;;;;;7.32;3.83;;;;;;;;;;5004961;28;20038;-82
2020/12/19 13:15:40;;;;;;;7.15;3.58;;;;;;;;;;5003786;28;20114;-82
2020/12/19 13:18:06;;;;;;;7.30;3.80;;;;;;;;;;5004910;28;20039;-82
2020/12/19 13:20:33;;;;;;;8.25;4.03;;;;;;;;;;5005132;28;20046;-81
2020/12/19 13:23:00;;;;;;;11.88;4.00;;;;;;;;;;5004953;28;20050;-81
2020/12/19 13:25:26;;;;;;;10.18;4.47;;;;;;;;;;5004485;28;20043;-81
2020/12/19 13:27:52;;;;;;;6.68;3.67;;;;;;;;;;5003870;28;20052;-80
2020/12/19 13:30:18;;;;;;;12.57;4.00;;;;;;;;;;5003947;28;20043;-81
2020/12/19 13:32:45;;;;;;;8.13;3.97;;;;;;;;;;5003327;28;20414;-80
2020/12/19 13:35:14;;;;;;;7.10;3.70;;;;;;;;;;5004526;28;20050;-82
2020/12/19 13:37:40;;;;;;;6.82;3.28;;;;;;;;;;5006612;28;20041;-82
2020/12/19 13:40:07;;;;;;;8.80;3.58;;;;;;;;;;4990941;28;20042;-81
2020/12/19 13:42:43;;;;;;;7.72;3.35;;;;;;;;;;4999120;28;20298;-85
2020/12/19 13:45:10;;;;;;;5.20;3.17;;;;;;;;;;5000016;28;20042;-82
2020/12/19 13:47:36;;;;;;;6.78;3.60;;;;;;;;;;5001441;28;20050;-82
2020/12/19 13:50:03;;;;;;;5.63;3.13;;;;;;;;;;5010693;28;20069;-80
2020/12/19 13:52:29;;;;;;;6.20;3.45;;;;;;;;;;5010929;28;20046;-79
2020/12/19 13:54:56;;;;;;;6.60;3.35;;;;;;;;;;4997507;28;20054;-86
2020/12/19 13:57:22;;;;;;;6.18;3.42;;;;;;;;;;5001201;28;20073;-83
2020/12/19 13:59:48;;;;;;;7.28;3.67;;;;;;;;;;4996913;28;20514;-86
2020/12/19 14:02:16;;;;;;;6.38;3.60;;;;;;;;;;4982548;28;20043;-82
2020/12/19 14:04:43;;;;;;;6.25;3.10;;;;;;;;;;4998966;28;20042;-80
2020/12/19 14:07:09;;;;;;;8.82;3.72;;;;;;;;;;5001622;28;20052;-82
2020/12/19 14:09:35;;;;;;;8.07;3.72;;;;;;;;;;5000682;28;20046;-84
2020/12/19 14:12:05;;;;;;;6.65;3.53;;;;;;;;;;4997685;28;20079;-82
2020/12/19 14:14:31;;;;;;;6.22;3.47;;;;;;;;;;5002820;28;20053;-80
2020/12/19 14:17:04;;;;;;;6.97;3.53;;;;;;;;;;5003089;28;20050;-81
2020/12/19 14:19:30;;;;;;;8.57;3.63;;;;;;;;;;4999232;28;20461;-80
2020/12/19 14:21:57;;;;;;;10.55;3.63;;;;;;;;;;4999595;28;20062;-81
2020/12/19 14:24:23;;;;;;;7.38;4.07;;;;;;;;;;5002049;28;20039;-82
2020/12/19 14:26:49;;;;;;;8.50;3.67;;;;;;;;;;4997657;28;20039;-83
2020/12/19 14:29:15;;;;;;;6.85;3.50;;;;;;;;;;4992862;28;20490;-81
2020/12/19 14:31:41;;;;;;;7.18;3.50;;;;;;;;;;4993922;28;20042;-83
2020/12/19 14:34:07;;;;;;;8.50;3.63;;;;;;;;;;4992125;28;20044;-81
2020/12/19 14:36:51;;;;;;;7.75;4.22;;;;;;;;;;4993884;28;20085;-84
2020/12/19 14:39:17;;;;;;;9.52;4.80;;;;;;;;;;4996321;28;20062;-80
2020/12/19 14:41:43;;;;;;;7.90;4.03;;;;;;;;;;4999615;28;20509;-82
2020/12/19 14:44:10;;;;;;;6.00;3.47;;;;;;;;;;4996496;28;20046;-81
2020/12/19 14:46:36;;;;;;;6.32;3.83;;;;;;;;;;4997964;28;20061;-83
2020/12/19 14:49:03;;;;;;;10.10;3.80;;;;;;;;;;4997364;28;20050;-82
2020/12/19 14:51:29;;;;;;;8.63;3.95;;;;;;;;;;4997477;28;20042;-81
2020/12/19 14:53:55;;;;;;;10.07;4.47;;;;;;;;;;4996709;28;20054;-82
2020/12/19 14:56:23;;;;;;;8.65;4.32;;;;;;;;;;4998429;28;20106;-87
2020/12/19 14:58:52;;;;;;;8.35;4.55;;;;;;;;;;4999792;28;20077;-84
2020/12/19 15:01:24;;;;;;;8.00;4.28;;;;;;;;;;4998051;28;20514;-86
2020/12/19 15:03:53;;;;;;;9.20;4.53;;;;;;;;;;4998281;28;20065;-85
2020/12/19 15:06:20;;;;;;;11.65;4.70;;;;;;;;;;4996985;28;20457;-84
2020/12/19 15:08:49;;;;;;;7.32;4.15;;;;;;;;;;4996940;28;20050;-83
2020/12/19 15:11:16;;;;;;;10.40;4.43;;;;;;;;;;4995283;28;20297;-83
2020/12/19 15:13:43;;;;;;;8.63;4.28;;;;;;;;;;5004992;28;20100;-83
2020/12/19 15:16:10;;;;;;;10.25;4.22;;;;;;;;;;5013923;28;20057;-84
2020/12/19 15:18:36;;;;;;;7.82;4.40;;;;;;;;;;5001694;28;20053;-84
2020/12/19 15:21:03;;;;;;;9.43;4.60;;;;;;;;;;5003845;28;20046;-83
2020/12/19 15:23:30;;;;;;;8.10;4.30;;;;;;;;;;4999581;28;20050;-86
2020/12/19 15:25:56;;;;;;;12.05;4.45;;;;;;;;;;4999845;28;20045;-86
2020/12/19 15:28:22;;;;;;;8.82;4.15;;;;;;;;;;4997924;28;20042;-83
2020/12/19 15:30:48;;;;;;;9.27;4.72;;;;;;;;;;4998076;28;20160;-85
2020/12/19 15:33:15;;;;;;;9.45;4.35;;;;;;;;;;4998598;28;20475;-85
2020/12/19 15:35:41;;;;;;;9.45;4.90;;;;;;;;;;4996077;28;20066;-84
2020/12/19 15:38:08;;;;;;;9.10;4.40;;;;;;;;;;4998018;28;20038;-81
2020/12/19 15:40:34;;;;;;;9.77;5.00;;;;;;;;;;4996573;28;20053;-85
2020/12/19 15:43:03;;;;;;;11.55;5.22;;;;;;;;;;4997737;28;20053;-82
2020/12/19 15:45:31;;;;;;;11.02;4.82;;;;;;;;;;4996952;28;20050;-84
2020/12/19 15:47:57;;;;;;;9.15;5.00;;;;;;;;;;4997856;28;20049;-85
2020/12/19 15:50:23;;;;;;;8.30;4.30;;;;;;;;;;4995743;28;20050;-82
2020/12/19 15:52:50;;;;;;;8.68;5.05;;;;;;;;;;5003159;28;20057;-84
2020/12/19 15:55:16;;;;;;;9.07;4.65;;;;;;;;;;5004246;28;20046;-84
2020/12/19 15:57:42;;;;;;;8.45;4.65;;;;;;;;;;5003923;28;20101;-82
2020/12/19 16:00:09;;;;;;;9.07;4.68;;;;;;;;;;5000779;28;20049;-81